createdAt,value
2023-02-17T00:00:45.926Z,1.52
2023-02-17T00:01:47.756Z,1.58
2023-02-17T00:02:50.006Z,2.10
2023-02-17T00:03:53.237Z,1.35
2023-02-17T00:04:55.234Z,1.75
2023-02-17T00:05:56.995Z,1.88
2023-02-17T00:06:59.191Z,1.77
2023-02-17T00:08:01.006Z,1.92
2023-02-17T00:09:03.693Z,1.70
2023-02-17T00:10:06.564Z,2.03
2023-02-17T00:11:08.364Z,1.65
2023-02-17T00:12:10.288Z,1.65
2023-02-17T00:13:12.162Z,1.70
2023-02-17T00:14:14.248Z,1.70
2023-02-17T00:15:16.120Z,1.50
2023-02-17T00:16:20.872Z,1.50
2023-02-17T00:17:22.773Z,1.73
2023-02-17T00:18:25.110Z,1.90
2023-02-17T00:19:27.004Z,1.65
2023-02-17T00:20:29.185Z,1.75
2023-02-17T00:21:32.712Z,1.67
2023-02-17T00:22:34.577Z,1.40
2023-02-17T00:23:36.408Z,1.50
2023-02-17T00:24:40.119Z,1.73
2023-02-17T00:25:42.435Z,1.65
2023-02-17T00:26:44.420Z,1.77
2023-02-17T00:27:46.245Z,1.85
2023-02-17T00:28:48.838Z,1.58
2023-02-17T00:29:50.673Z,1.70
2023-02-17T00:30:52.538Z,1.52
2023-02-17T00:31:55.715Z,1.40
2023-02-17T00:32:58.204Z,1.42
2023-02-17T00:34:00.014Z,1.80
2023-02-17T00:35:01.861Z,1.83
2023-02-17T00:36:10.715Z,1.75
2023-02-17T00:37:12.577Z,2.25
2023-02-17T00:38:14.517Z,2.05
2023-02-17T00:39:17.229Z,2.53
2023-02-17T00:40:19.172Z,1.70
2023-02-17T00:41:21.960Z,1.63
2023-02-17T00:42:24.622Z,1.67
2023-02-17T00:43:26.620Z,1.50
2023-02-17T00:44:28.810Z,1.83
2023-02-17T00:45:30.606Z,1.50
2023-02-17T00:46:32.586Z,1.48
2023-02-17T00:47:34.622Z,1.45
2023-02-17T00:48:36.562Z,1.55
2023-02-17T00:49:39.943Z,1.48
2023-02-17T00:50:42.022Z,1.60
2023-02-17T00:51:45.544Z,1.83
2023-02-17T00:52:47.406Z,1.67
2023-02-17T00:53:49.289Z,2.45
2023-02-17T00:54:51.101Z,1.52
2023-02-17T00:55:52.909Z,1.75
2023-02-17T00:56:55.011Z,1.75
2023-02-17T00:57:58.596Z,1.42
2023-02-17T00:59:00.417Z,1.60
2023-02-17T01:00:02.300Z,1.73
2023-02-17T01:01:04.841Z,1.60
2023-02-17T01:02:06.638Z,1.63
2023-02-17T01:03:08.871Z,1.45
2023-02-17T01:04:10.871Z,2.15
2023-02-17T01:05:13.037Z,1.83
2023-02-17T01:06:23.317Z,1.35
2023-02-17T01:07:25.213Z,1.85
2023-02-17T01:08:27.083Z,2.08
2023-02-17T01:09:29.027Z,1.70
2023-02-17T01:10:30.884Z,2.03
2023-02-17T01:11:34.659Z,1.45
2023-02-17T01:12:36.593Z,1.88
2023-02-17T01:13:38.417Z,1.50
2023-02-17T01:14:40.496Z,1.80
2023-02-17T01:15:45.625Z,1.73
2023-02-17T01:16:49.191Z,1.75
2023-02-17T01:17:51.097Z,1.65
2023-02-17T01:18:57.457Z,1.48
2023-02-17T01:19:59.442Z,1.58
2023-02-17T01:21:01.218Z,1.58
2023-02-17T01:22:03.036Z,1.40
2023-02-17T01:23:05.705Z,1.90
2023-02-17T01:24:09.252Z,1.75
2023-02-17T01:25:11.107Z,1.88
2023-02-17T01:26:18.109Z,1.45
2023-02-17T01:27:19.953Z,1.80
2023-02-17T01:28:23.190Z,1.70
2023-02-17T01:29:25.034Z,1.55
2023-02-17T01:30:26.881Z,1.80
2023-02-17T01:31:28.864Z,1.70
2023-02-17T01:32:30.696Z,1.48
2023-02-17T01:33:32.540Z,1.58
2023-02-17T01:34:34.430Z,1.60
2023-02-17T01:35:36.295Z,1.63
2023-02-17T01:36:38.069Z,1.50
2023-02-17T01:37:39.874Z,1.60
2023-02-17T01:38:41.716Z,1.60
2023-02-17T01:39:43.505Z,1.58
2023-02-17T01:40:48.636Z,1.58
2023-02-17T01:41:50.508Z,1.98
2023-02-17T01:42:54.972Z,1.50
2023-02-17T01:44:06.637Z,1.83
2023-02-17T01:45:20.295Z,1.60
2023-02-17T01:46:22.205Z,2.00
2023-02-17T01:47:24.111Z,1.60
2023-02-17T01:48:27.954Z,2.25
2023-02-17T01:49:37.971Z,1.60
2023-02-17T01:50:51.540Z,1.67
2023-02-17T01:52:00.584Z,1.83
2023-02-17T01:53:04.227Z,1.80
2023-02-17T01:54:34.009Z,1.35
2023-02-17T01:55:37.689Z,1.23
2023-02-17T01:56:43.601Z,1.40
2023-02-17T01:57:47.621Z,1.58
2023-02-17T01:58:55.682Z,1.33
2023-02-17T01:59:57.821Z,1.33
2023-02-17T02:01:03.494Z,1.60
2023-02-17T02:02:06.410Z,1.45
2023-02-17T02:03:10.756Z,1.90
2023-02-17T02:04:14.656Z,1.35
2023-02-17T02:05:19.389Z,1.42
2023-02-17T02:06:25.521Z,1.92
2023-02-17T02:07:32.273Z,1.67
2023-02-17T02:08:43.053Z,1.45
2023-02-17T02:09:52.474Z,1.50
2023-02-17T02:10:54.262Z,1.90
2023-02-17T02:11:56.072Z,1.40
2023-02-17T02:12:57.885Z,1.60
2023-02-17T02:14:00.665Z,1.38
2023-02-17T02:15:09.431Z,1.40
2023-02-17T02:17:03.697Z,1.48
2023-02-17T02:18:22.244Z,1.60
2023-02-17T02:19:42.560Z,1.98
2023-02-17T02:21:18.025Z,1.50
2023-02-17T02:22:34.006Z,1.70
2023-02-17T02:23:57.874Z,1.77
2023-02-17T02:25:34.367Z,2.17
2023-02-17T02:27:15.025Z,1.50
2023-02-17T02:28:48.684Z,1.50
2023-02-17T02:30:09.215Z,1.58
2023-02-17T02:31:42.466Z,1.75
2023-02-17T02:33:00.135Z,1.60
2023-02-17T02:34:29.250Z,1.55
2023-02-17T02:35:42.985Z,1.83
2023-02-17T02:37:14.192Z,2.17
2023-02-17T02:38:25.229Z,1.40
2023-02-17T02:39:32.534Z,1.38
2023-02-17T02:40:39.937Z,1.90
2023-02-17T02:42:05.737Z,1.73
2023-02-17T02:43:08.181Z,1.50
2023-02-17T02:44:13.159Z,1.38
2023-02-17T02:45:19.427Z,1.33
2023-02-17T02:46:21.556Z,1.73
2023-02-17T02:47:58.894Z,1.50
2023-02-17T02:49:04.699Z,1.42
2023-02-17T02:50:07.915Z,1.52
2023-02-17T02:51:29.905Z,1.48
2023-02-17T02:52:57.784Z,1.52
2023-02-17T02:54:11.179Z,1.15
2023-02-17T02:55:39.582Z,1.40
2023-02-17T02:56:53.205Z,1.60
2023-02-17T02:58:17.215Z,1.40
2023-02-17T02:59:40.791Z,1.50
2023-02-17T03:01:18.649Z,1.95
2023-02-17T03:02:23.718Z,1.50
2023-02-17T03:03:42.276Z,3.10
2023-02-17T03:05:11.621Z,3.17
2023-02-17T03:06:26.880Z,3.42
2023-02-17T03:07:38.080Z,4.43
2023-02-17T03:08:47.458Z,4.95
2023-02-17T03:09:52.343Z,8.00
2023-02-17T03:10:55.101Z,8.68
2023-02-17T03:11:58.581Z,11.38
2023-02-17T03:13:02.758Z,8.45
2023-02-17T03:14:09.401Z,12.95
2023-02-17T03:15:30.828Z,11.95
2023-02-17T03:16:36.535Z,11.02
2023-02-17T03:17:38.357Z,13.90
2023-02-17T03:18:42.112Z,12.40
2023-02-17T03:19:47.832Z,12.57
2023-02-17T03:20:56.477Z,11.57
2023-02-17T03:22:09.294Z,10.30
2023-02-17T03:23:11.277Z,10.85
2023-02-17T03:24:13.336Z,13.13
2023-02-17T03:25:16.611Z,10.93
2023-02-17T03:26:19.174Z,12.50
2023-02-17T03:27:21.534Z,13.30
2023-02-17T03:28:23.932Z,11.82
2023-02-17T03:29:26.145Z,15.43
2023-02-17T03:30:28.490Z,14.95
2023-02-17T03:31:31.022Z,11.85
2023-02-17T03:32:33.035Z,12.75
2023-02-17T03:33:34.840Z,14.02
2023-02-17T03:34:36.749Z,8.32
2023-02-17T03:35:38.561Z,9.63
2023-02-17T03:36:40.450Z,8.27
2023-02-17T03:37:42.273Z,10.48
2023-02-17T03:38:44.229Z,8.13
2023-02-17T03:39:46.076Z,8.07
2023-02-17T03:40:47.955Z,6.75
2023-02-17T03:41:51.808Z,5.13
2023-02-17T03:42:53.650Z,6.63
2023-02-17T03:43:55.500Z,5.70
2023-02-17T03:44:57.330Z,4.88
2023-02-17T03:45:59.203Z,4.82
2023-02-17T03:47:01.097Z,4.70
2023-02-17T03:48:02.920Z,5.18
2023-02-17T03:49:04.749Z,4.28
2023-02-17T03:50:07.263Z,3.78
2023-02-17T03:51:21.179Z,3.53
2023-02-17T03:52:23.070Z,4.35
2023-02-17T03:53:24.911Z,3.08
2023-02-17T03:54:27.492Z,4.88
2023-02-17T03:55:29.473Z,3.95
2023-02-17T03:56:32.045Z,3.85
2023-02-17T03:57:34.859Z,4.18
2023-02-17T03:58:37.062Z,2.72
2023-02-17T03:59:38.945Z,2.75
2023-02-17T04:00:40.774Z,2.95
2023-02-17T04:01:42.683Z,2.75
2023-02-17T04:02:44.542Z,1.67
2023-02-17T04:03:46.461Z,2.88
2023-02-17T04:04:48.380Z,1.83
2023-02-17T04:05:50.203Z,2.97
2023-02-17T04:06:52.020Z,3.40
2023-02-17T04:07:53.814Z,1.65
2023-02-17T04:08:55.758Z,2.08
2023-02-17T04:09:57.603Z,2.10
2023-02-17T04:11:01.195Z,1.98
2023-02-17T04:12:03.242Z,1.50
2023-02-17T04:13:05.010Z,1.48
2023-02-17T04:14:06.852Z,1.63
2023-02-17T04:15:09.194Z,1.80
2023-02-17T04:16:11.680Z,1.30
2023-02-17T04:17:13.525Z,1.75
2023-02-17T04:18:15.975Z,1.55
2023-02-17T04:19:18.798Z,1.30
2023-02-17T04:20:22.263Z,1.52
2023-02-17T04:21:24.117Z,1.35
2023-02-17T04:22:25.963Z,2.42
2023-02-17T04:23:27.936Z,1.83
2023-02-17T04:24:29.769Z,1.75
2023-02-17T04:25:34.899Z,2.22
2023-02-17T04:26:36.822Z,1.75
2023-02-17T04:27:38.611Z,1.48
2023-02-17T04:28:42.236Z,4.65
2023-02-17T04:29:44.125Z,1.52
2023-02-17T04:30:48.016Z,1.50
2023-02-17T04:31:49.976Z,1.45
2023-02-17T04:32:51.810Z,1.42
2023-02-17T04:33:53.826Z,1.30
2023-02-17T04:34:55.705Z,1.45
2023-02-17T04:35:59.766Z,1.58
2023-02-17T04:37:01.602Z,1.30
2023-02-17T04:38:03.549Z,1.38
2023-02-17T04:39:05.406Z,1.42
2023-02-17T04:40:10.507Z,1.50
2023-02-17T04:41:12.404Z,2.00
2023-02-17T04:42:14.232Z,1.30
2023-02-17T04:43:16.019Z,1.40
2023-02-17T04:44:17.966Z,1.42
2023-02-17T04:45:20.374Z,1.40
2023-02-17T04:46:22.201Z,1.58
2023-02-17T04:47:24.221Z,1.48
2023-02-17T04:48:26.801Z,1.40
2023-02-17T04:49:28.705Z,1.63
2023-02-17T04:50:30.576Z,1.55
2023-02-17T04:51:32.405Z,1.50
2023-02-17T04:52:34.536Z,1.50
2023-02-17T04:53:36.424Z,1.35
2023-02-17T04:54:38.180Z,1.60
2023-02-17T04:55:40.961Z,1.63
2023-02-17T04:56:42.758Z,1.30
2023-02-17T04:57:44.619Z,1.65
2023-02-17T04:58:46.493Z,1.50
2023-02-17T04:59:48.343Z,1.45
2023-02-17T05:00:50.814Z,1.30
2023-02-17T05:01:52.616Z,1.75
2023-02-17T05:02:54.485Z,1.70
2023-02-17T05:03:56.350Z,1.80
2023-02-17T05:04:58.287Z,2.15
2023-02-17T05:06:00.077Z,1.80
2023-02-17T05:07:01.875Z,1.40
2023-02-17T05:08:03.908Z,2.08
2023-02-17T05:09:05.781Z,1.42
2023-02-17T05:10:08.169Z,1.90
2023-02-17T05:11:10.053Z,1.27
2023-02-17T05:12:11.855Z,1.58
2023-02-17T05:13:13.669Z,1.60
2023-02-17T05:14:15.505Z,1.33
2023-02-17T05:15:17.416Z,1.55
2023-02-17T05:16:19.248Z,1.52
2023-02-17T05:17:21.086Z,1.40
2023-02-17T05:18:22.864Z,2.05
2023-02-17T05:19:25.044Z,1.58
2023-02-17T05:20:27.071Z,1.73
2023-02-17T05:21:28.891Z,1.42
2023-02-17T05:22:30.672Z,1.42
2023-02-17T05:23:32.552Z,1.55
2023-02-17T05:24:34.364Z,1.20
2023-02-17T05:25:36.838Z,1.25
2023-02-17T05:26:38.817Z,1.67
2023-02-17T05:27:40.694Z,1.20
2023-02-17T05:28:42.473Z,1.65
2023-02-17T05:29:44.274Z,2.05
2023-02-17T05:30:48.991Z,1.65
2023-02-17T05:31:50.909Z,1.70
2023-02-17T05:32:53.057Z,1.75
2023-02-17T05:33:55.844Z,1.38
2023-02-17T05:34:57.657Z,1.80
2023-02-17T05:36:08.013Z,1.08
2023-02-17T05:37:10.297Z,1.35
2023-02-17T05:38:12.105Z,1.65
2023-02-17T05:39:14.105Z,1.40
2023-02-17T05:40:15.892Z,1.55
2023-02-17T05:41:18.765Z,1.58
2023-02-17T05:42:21.220Z,1.45
2023-02-17T05:43:23.688Z,1.70
2023-02-17T05:44:25.492Z,1.35
2023-02-17T05:45:27.379Z,1.33
2023-02-17T05:46:29.321Z,2.30
2023-02-17T05:47:31.286Z,1.80
2023-02-17T05:48:33.898Z,1.50
2023-02-17T05:49:35.732Z,1.40
2023-02-17T05:50:37.557Z,1.50
2023-02-17T05:51:40.364Z,1.27
2023-02-17T05:52:42.204Z,1.20
2023-02-17T05:53:45.040Z,1.60
2023-02-17T05:54:46.845Z,2.17
2023-02-17T05:55:48.956Z,1.20
2023-02-17T05:56:50.748Z,1.50
2023-02-17T05:57:52.623Z,1.35
2023-02-17T05:58:54.616Z,1.35
2023-02-17T05:59:56.447Z,1.63
2023-02-17T06:00:58.230Z,2.22
2023-02-17T06:02:00.024Z,1.70
2023-02-17T06:03:01.843Z,1.17
2023-02-17T06:04:04.625Z,1.67
2023-02-17T06:05:07.086Z,1.20
2023-02-17T06:06:09.118Z,1.73
2023-02-17T06:07:10.972Z,1.33
2023-02-17T06:08:12.732Z,1.30
2023-02-17T06:09:14.676Z,1.67
2023-02-17T06:10:16.669Z,1.50
2023-02-17T06:11:18.515Z,1.67
2023-02-17T06:12:20.278Z,1.90
2023-02-17T06:13:22.359Z,1.33
2023-02-17T06:14:24.286Z,1.80
2023-02-17T06:15:26.203Z,1.45
2023-02-17T06:16:28.274Z,1.40
2023-02-17T06:17:30.224Z,1.83
2023-02-17T06:18:32.069Z,1.95
2023-02-17T06:19:33.841Z,1.70
2023-02-17T06:20:35.751Z,2.17
2023-02-17T06:21:37.652Z,1.55
2023-02-17T06:22:39.689Z,1.75
2023-02-17T06:23:41.618Z,1.58
2023-02-17T06:24:43.491Z,1.50
2023-02-17T06:25:45.928Z,1.40
2023-02-17T06:26:47.826Z,1.48
2023-02-17T06:27:49.642Z,1.42
2023-02-17T06:28:51.485Z,1.48
2023-02-17T06:29:53.290Z,1.45
2023-02-17T06:30:55.145Z,1.50
2023-02-17T06:31:57.033Z,1.63
2023-02-17T06:32:59.343Z,1.40
2023-02-17T06:34:01.213Z,1.38
2023-02-17T06:35:03.384Z,1.63
2023-02-17T06:36:05.889Z,1.48
2023-02-17T06:37:07.860Z,2.05
2023-02-17T06:38:09.732Z,1.33
2023-02-17T06:39:11.722Z,1.50
2023-02-17T06:40:13.904Z,2.83
2023-02-17T06:41:15.964Z,1.90
2023-02-17T06:42:17.748Z,2.47
2023-02-17T06:43:19.512Z,4.05
2023-02-17T06:44:21.351Z,1.85
2023-02-17T06:45:23.107Z,2.65
2023-02-17T06:46:25.008Z,2.00
2023-02-17T06:47:27.111Z,1.50
2023-02-17T06:48:28.906Z,3.67
2023-02-17T06:49:30.653Z,2.13
2023-02-17T06:50:32.526Z,2.00
2023-02-17T06:51:34.386Z,1.88
2023-02-17T06:52:36.226Z,1.90
2023-02-17T06:53:38.021Z,2.42
2023-02-17T06:54:39.837Z,2.00
2023-02-17T06:55:44.372Z,2.42
2023-02-17T06:56:46.154Z,1.65
2023-02-17T06:57:48.076Z,4.00
2023-02-17T06:58:49.908Z,1.50
2023-02-17T06:59:51.753Z,2.15
2023-02-17T07:00:53.553Z,1.75
2023-02-17T07:01:55.453Z,1.45
2023-02-17T07:02:57.472Z,2.00
2023-02-17T07:03:59.922Z,1.75
2023-02-17T07:05:01.799Z,1.65
2023-02-17T07:06:03.877Z,2.00
2023-02-17T07:07:05.889Z,2.55
2023-02-17T07:08:07.795Z,2.05
2023-02-17T07:09:13.495Z,1.83
2023-02-17T07:10:15.312Z,2.10
2023-02-17T07:11:17.928Z,2.28
2023-02-17T07:12:19.736Z,2.08
2023-02-17T07:13:21.569Z,1.55
2023-02-17T07:14:25.039Z,1.75
2023-02-17T07:15:26.912Z,2.10
2023-02-17T07:16:28.832Z,1.90
2023-02-17T07:17:30.736Z,1.58
2023-02-17T07:18:32.576Z,1.80
2023-02-17T07:19:34.476Z,2.20
2023-02-17T07:20:38.238Z,1.70
2023-02-17T07:21:41.129Z,1.75
2023-02-17T07:22:43.062Z,1.92
2023-02-17T07:23:45.346Z,2.42
2023-02-17T07:24:47.232Z,2.20
2023-02-17T07:25:49.116Z,2.05
2023-02-17T07:26:51.472Z,3.17
2023-02-17T07:27:53.303Z,3.15
2023-02-17T07:28:55.138Z,1.60
2023-02-17T07:29:57.360Z,1.88
2023-02-17T07:31:05.690Z,2.53
2023-02-17T07:32:07.605Z,2.42
2023-02-17T07:33:10.445Z,1.77
2023-02-17T07:34:12.244Z,2.22
2023-02-17T07:35:14.022Z,1.92
2023-02-17T07:36:17.192Z,1.80
2023-02-17T07:37:21.853Z,1.88
2023-02-17T07:38:23.745Z,2.10
2023-02-17T07:39:25.804Z,1.60
2023-02-17T07:40:28.531Z,1.98
2023-02-17T07:41:32.902Z,1.60
2023-02-17T07:42:42.936Z,1.73
2023-02-17T07:43:45.451Z,2.10
2023-02-17T07:44:47.345Z,3.15
2023-02-17T07:45:49.276Z,2.00
2023-02-17T07:46:51.108Z,2.10
2023-02-17T07:47:52.990Z,2.67
2023-02-17T07:48:57.092Z,1.60
2023-02-17T07:49:58.973Z,2.22
2023-02-17T07:51:14.929Z,1.88
2023-02-17T07:52:18.508Z,2.03
2023-02-17T07:53:20.513Z,2.35
2023-02-17T07:54:22.419Z,2.15
2023-02-17T07:55:24.490Z,2.08
2023-02-17T07:56:26.656Z,1.70
2023-02-17T07:57:28.428Z,1.83
2023-02-17T07:58:32.930Z,1.98
2023-02-17T07:59:34.792Z,2.28
2023-02-17T08:00:36.702Z,1.98
2023-02-17T08:01:39.130Z,1.70
2023-02-17T08:02:40.964Z,2.08
2023-02-17T08:03:43.160Z,1.90
2023-02-17T08:04:44.988Z,1.80
2023-02-17T08:05:48.249Z,2.50
2023-02-17T08:06:50.964Z,1.88
2023-02-17T08:08:12.777Z,2.55
2023-02-17T08:09:33.046Z,2.08
2023-02-17T08:10:55.097Z,2.22
2023-02-17T08:12:15.499Z,2.72
2023-02-17T08:13:20.290Z,1.80
2023-02-17T08:14:24.034Z,1.95
2023-02-17T08:15:25.890Z,1.70
2023-02-17T08:16:28.070Z,1.42
2023-02-17T08:17:30.012Z,1.92
2023-02-17T08:18:36.248Z,1.98
2023-02-17T08:19:53.552Z,1.80
2023-02-17T08:20:55.677Z,2.00
2023-02-17T08:21:57.523Z,1.60
2023-02-17T08:23:01.158Z,1.85
2023-02-17T08:24:03.205Z,2.08
2023-02-17T08:25:06.339Z,1.95
2023-02-17T08:26:08.584Z,2.45
2023-02-17T08:27:10.542Z,1.65
2023-02-17T08:28:12.817Z,1.85
2023-02-17T08:29:15.224Z,2.50
2023-02-17T08:30:17.346Z,1.60
2023-02-17T08:31:22.110Z,2.08
2023-02-17T08:32:24.119Z,2.22
2023-02-17T08:33:26.168Z,1.50
2023-02-17T08:34:28.668Z,2.03
2023-02-17T08:35:30.577Z,1.80
2023-02-17T08:36:32.831Z,1.95
2023-02-17T08:37:34.660Z,2.50
2023-02-17T08:38:36.464Z,2.45
2023-02-17T08:39:38.828Z,2.92
2023-02-17T08:40:40.696Z,2.03
2023-02-17T08:41:42.904Z,2.20
2023-02-17T08:42:44.874Z,1.65
2023-02-17T08:43:47.493Z,2.00
2023-02-17T08:44:49.348Z,1.63
2023-02-17T08:45:51.259Z,1.60
2023-02-17T08:46:53.674Z,1.90
2023-02-17T08:47:55.548Z,2.20
2023-02-17T08:48:57.527Z,2.38
2023-02-17T08:49:59.360Z,2.45
2023-02-17T08:51:01.215Z,1.40
2023-02-17T08:52:03.874Z,1.60
2023-02-17T08:53:05.750Z,2.08
2023-02-17T08:54:08.317Z,1.70
2023-02-17T08:55:10.354Z,1.30
2023-02-17T08:56:12.416Z,1.80
2023-02-17T08:57:14.332Z,1.90
2023-02-17T08:58:16.217Z,2.15
2023-02-17T08:59:18.116Z,1.60
2023-02-17T09:00:20.067Z,1.67
2023-02-17T09:01:22.228Z,1.67
2023-02-17T09:02:24.147Z,1.60
2023-02-17T09:03:26.215Z,1.80
2023-02-17T09:04:28.219Z,1.52
2023-02-17T09:05:32.297Z,2.25
2023-02-17T09:06:46.769Z,2.10
2023-02-17T09:07:48.622Z,1.65
2023-02-17T09:08:51.053Z,2.95
2023-02-17T09:09:52.976Z,1.80
2023-02-17T09:10:54.784Z,1.75
2023-02-17T09:11:57.960Z,1.75
2023-02-17T09:12:59.848Z,1.85
2023-02-17T09:14:02.671Z,1.95
2023-02-17T09:15:05.238Z,1.40
2023-02-17T09:16:07.928Z,2.15
2023-02-17T09:17:10.507Z,1.80
2023-02-17T09:18:12.574Z,2.20
2023-02-17T09:19:14.396Z,1.90
2023-02-17T09:20:24.721Z,1.92
2023-02-17T09:21:27.481Z,1.95
2023-02-17T09:22:32.241Z,2.00
2023-02-17T09:23:34.545Z,1.70
2023-02-17T09:24:38.812Z,2.28
2023-02-17T09:25:40.830Z,2.97
2023-02-17T09:26:42.831Z,1.83
2023-02-17T09:27:44.790Z,2.45
2023-02-17T09:28:47.423Z,2.13
2023-02-17T09:29:49.210Z,3.03
2023-02-17T09:30:51.221Z,2.67
2023-02-17T09:31:53.950Z,3.15
2023-02-17T09:32:56.050Z,2.67
2023-02-17T09:33:58.939Z,2.97
2023-02-17T09:35:01.619Z,2.65
2023-02-17T09:36:05.091Z,4.43
2023-02-17T09:37:13.212Z,5.13
2023-02-17T09:38:15.931Z,4.35
2023-02-17T09:39:17.775Z,5.93
2023-02-17T09:40:36.723Z,5.40
2023-02-17T09:41:41.764Z,4.88
2023-02-17T09:42:43.905Z,6.70
2023-02-17T09:43:46.224Z,3.47
2023-02-17T09:44:54.779Z,5.60
2023-02-17T09:46:06.619Z,8.52
2023-02-17T09:47:38.058Z,3.25
2023-02-17T09:48:41.142Z,4.35
2023-02-17T09:49:51.077Z,3.05
2023-02-17T09:51:05.808Z,1.88
2023-02-17T09:52:32.012Z,2.90
2023-02-17T09:53:52.111Z,2.05
2023-02-17T09:55:04.362Z,3.13
2023-02-17T09:56:11.635Z,2.22
2023-02-17T09:57:20.970Z,2.92
2023-02-17T09:58:32.663Z,3.15
2023-02-17T09:59:57.006Z,4.03
2023-02-17T10:01:02.564Z,4.88
2023-02-17T10:02:19.425Z,4.65
2023-02-17T10:03:33.152Z,3.70
2023-02-17T10:04:41.421Z,2.72
2023-02-17T10:06:17.937Z,3.97
2023-02-17T10:07:27.168Z,2.85
2023-02-17T10:08:36.243Z,2.22
2023-02-17T10:09:49.263Z,2.78
2023-02-17T10:10:56.467Z,2.58
2023-02-17T10:12:05.009Z,2.28
2023-02-17T10:13:09.628Z,3.08
2023-02-17T10:14:37.869Z,3.72
2023-02-17T10:15:43.304Z,3.83
2023-02-17T10:16:51.598Z,2.80
2023-02-17T10:17:59.501Z,3.55
2023-02-17T10:19:23.364Z,4.47
2023-02-17T10:20:39.948Z,3.05
2023-02-17T10:21:55.885Z,4.55
2023-02-17T10:23:05.060Z,4.75
2023-02-17T10:24:07.124Z,3.95
2023-02-17T10:25:18.879Z,5.07
2023-02-17T10:27:09.403Z,4.18
2023-02-17T10:28:37.654Z,5.38
2023-02-17T10:30:04.415Z,5.90
2023-02-17T10:31:12.514Z,4.88
2023-02-17T10:32:25.250Z,4.93
2023-02-17T10:33:36.721Z,4.45
2023-02-17T10:34:53.484Z,3.60
2023-02-17T10:36:17.933Z,3.05
2023-02-17T10:37:33.940Z,5.50
2023-02-17T10:38:50.945Z,4.07
2023-02-17T10:39:57.112Z,4.35
2023-02-17T10:41:01.948Z,3.03
2023-02-17T10:42:05.607Z,3.17
2023-02-17T10:43:12.101Z,4.13
2023-02-17T10:44:20.057Z,4.38
2023-02-17T10:45:45.212Z,4.03
2023-02-17T10:46:48.627Z,3.72
2023-02-17T10:47:56.479Z,3.28
2023-02-17T10:49:00.151Z,3.05
2023-02-17T10:50:03.489Z,3.40
2023-02-17T10:51:05.869Z,4.00
2023-02-17T10:52:15.850Z,4.25
2023-02-17T10:53:22.623Z,3.92
2023-02-17T10:54:37.969Z,4.97
2023-02-17T10:55:50.457Z,3.90
2023-02-17T10:56:57.760Z,4.20
2023-02-17T10:58:07.108Z,3.35
2023-02-17T10:59:21.176Z,5.03
2023-02-17T11:00:23.148Z,3.53
2023-02-17T11:01:25.803Z,3.40
2023-02-17T11:02:38.346Z,3.55
2023-02-17T11:03:41.359Z,3.70
2023-02-17T11:04:49.307Z,5.40
2023-02-17T11:06:00.042Z,3.60
2023-02-17T11:07:03.525Z,3.75
2023-02-17T11:08:15.376Z,3.35
2023-02-17T11:09:32.931Z,3.58
2023-02-17T11:10:41.082Z,4.07
2023-02-17T11:11:59.265Z,4.10
2023-02-17T11:13:03.657Z,5.63
2023-02-17T11:14:11.414Z,4.18
2023-02-17T11:15:19.160Z,4.88
2023-02-17T11:16:44.353Z,4.85
2023-02-17T11:17:47.394Z,4.78
2023-02-17T11:18:50.240Z,4.15
2023-02-17T11:20:04.509Z,3.83
2023-02-17T11:21:09.604Z,3.70
2023-02-17T11:22:48.334Z,4.47
2023-02-17T11:23:55.905Z,5.00
2023-02-17T11:25:00.327Z,3.60
2023-02-17T11:26:09.695Z,3.80
2023-02-17T11:27:12.270Z,3.92
2023-02-17T11:28:24.045Z,4.60
2023-02-17T11:29:27.077Z,5.22
2023-02-17T11:30:31.118Z,3.08
2023-02-17T11:31:32.971Z,4.68
2023-02-17T11:32:36.172Z,4.55
2023-02-17T11:33:40.131Z,4.10
2023-02-17T11:34:43.993Z,4.55
2023-02-17T11:35:50.784Z,3.28
2023-02-17T11:37:14.591Z,3.25
2023-02-17T11:38:19.972Z,4.30
2023-02-17T11:39:22.572Z,4.18
2023-02-17T11:40:27.932Z,4.00
2023-02-17T11:41:39.447Z,4.45
2023-02-17T11:42:41.245Z,4.38
2023-02-17T11:44:00.156Z,4.30
2023-02-17T11:45:18.536Z,4.50
2023-02-17T11:46:36.611Z,3.90
2023-02-17T11:47:47.940Z,4.43
2023-02-17T11:49:07.558Z,4.00
2023-02-17T11:50:44.980Z,3.38
2023-02-17T11:52:04.566Z,5.60
2023-02-17T11:53:25.991Z,3.28
2023-02-17T11:55:04.172Z,4.35
2023-02-17T11:56:17.520Z,4.18
2023-02-17T11:57:30.021Z,4.70
2023-02-17T11:58:34.896Z,7.25
2023-02-17T11:59:45.640Z,11.95
2023-02-17T12:01:01.243Z,7.50
2023-02-17T12:02:24.537Z,10.07
2023-02-17T12:03:46.984Z,10.65
2023-02-17T12:05:18.751Z,12.50
2023-02-17T12:07:02.046Z,13.10
2023-02-17T12:08:27.408Z,13.02
2023-02-17T12:09:34.589Z,9.40
2023-02-17T12:10:47.405Z,7.30
2023-02-17T12:11:59.830Z,8.88
2023-02-17T12:13:19.017Z,11.23
2023-02-17T12:14:43.377Z,7.50
2023-02-17T12:16:10.299Z,10.45
2023-02-17T12:17:51.912Z,7.93
2023-02-17T12:18:59.428Z,9.02
2023-02-17T12:20:36.654Z,7.38
2023-02-17T12:21:53.768Z,8.40
2023-02-17T12:23:01.441Z,7.38
2023-02-17T12:24:19.873Z,6.80
2023-02-17T12:25:27.174Z,7.63
2023-02-17T12:26:38.681Z,5.35
2023-02-17T12:27:46.486Z,7.07
2023-02-17T12:29:01.494Z,6.32
2023-02-17T12:30:34.766Z,6.95
2023-02-17T12:31:53.898Z,6.10
2023-02-17T12:33:34.166Z,8.13
2023-02-17T12:34:38.909Z,7.47
2023-02-17T12:35:53.064Z,7.63
2023-02-17T12:36:57.072Z,5.97
2023-02-17T12:38:04.514Z,5.63
2023-02-17T12:39:28.932Z,7.07
2023-02-17T12:40:39.992Z,6.10
2023-02-17T12:41:48.570Z,6.85
2023-02-17T12:42:59.552Z,5.88
2023-02-17T12:44:12.547Z,5.57
2023-02-17T12:45:14.374Z,5.85
2023-02-17T12:46:20.007Z,6.30
2023-02-17T12:47:34.103Z,5.85
2023-02-17T12:49:02.016Z,5.78
2023-02-17T12:50:38.208Z,5.38
2023-02-17T12:51:59.680Z,8.32
2023-02-17T12:53:05.789Z,5.65
2023-02-17T12:54:39.717Z,5.30
2023-02-17T12:55:51.133Z,6.50
2023-02-17T12:57:10.868Z,5.95
2023-02-17T12:58:18.056Z,5.70
2023-02-17T12:59:39.247Z,6.15
2023-02-17T13:00:44.588Z,5.43
2023-02-17T13:02:18.958Z,5.57
2023-02-17T13:03:20.973Z,5.70
2023-02-17T13:04:26.286Z,6.00
2023-02-17T13:05:34.769Z,5.35
2023-02-17T13:06:44.832Z,5.15
2023-02-17T13:07:51.364Z,5.53
2023-02-17T13:09:01.000Z,5.43
2023-02-17T13:10:04.577Z,4.90
2023-02-17T13:11:25.504Z,4.95
2023-02-17T13:12:27.309Z,5.82
2023-02-17T13:13:31.781Z,4.78
2023-02-17T13:14:42.719Z,5.63
2023-02-17T13:15:46.716Z,4.90
2023-02-17T13:16:49.742Z,4.82
2023-02-17T13:17:57.177Z,5.60
2023-02-17T13:19:07.658Z,5.45
2023-02-17T13:20:12.461Z,4.70
2023-02-17T13:21:30.082Z,5.90
2023-02-17T13:22:31.935Z,4.95
2023-02-17T13:23:40.226Z,4.68
2023-02-17T13:24:53.400Z,4.20
2023-02-17T13:26:08.908Z,4.82
2023-02-17T13:27:13.178Z,4.43
2023-02-17T13:28:33.172Z,5.45
2023-02-17T13:29:36.724Z,4.88
2023-02-17T13:30:40.183Z,5.45
2023-02-17T13:31:52.839Z,4.97
2023-02-17T13:33:20.608Z,5.07
2023-02-17T13:34:31.632Z,4.65
2023-02-17T13:35:36.768Z,4.70
2023-02-17T13:36:38.642Z,5.20
2023-02-17T13:37:45.994Z,5.20
2023-02-17T13:38:56.543Z,4.70
2023-02-17T13:40:02.713Z,5.05
2023-02-17T13:41:06.615Z,4.82
2023-02-17T13:42:47.884Z,4.07
2023-02-17T13:43:49.775Z,4.88
2023-02-17T13:44:51.994Z,4.68
2023-02-17T13:46:01.912Z,5.15
2023-02-17T13:47:13.097Z,4.32
2023-02-17T13:48:24.956Z,3.60
2023-02-17T13:49:33.127Z,4.03
2023-02-17T13:50:38.079Z,4.25
2023-02-17T13:51:40.036Z,4.18
2023-02-17T13:52:43.830Z,4.10
2023-02-17T13:53:50.344Z,3.88
2023-02-17T13:54:59.345Z,4.63
2023-02-17T13:56:04.954Z,3.88
2023-02-17T13:57:06.856Z,4.18
2023-02-17T13:58:10.889Z,3.97
2023-02-17T13:59:20.177Z,4.50
2023-02-17T14:00:30.611Z,4.25
2023-02-17T14:01:32.614Z,4.53
2023-02-17T14:02:38.789Z,4.07
2023-02-17T14:03:40.614Z,4.55
2023-02-17T14:04:43.618Z,4.07
2023-02-17T14:05:47.826Z,4.03
2023-02-17T14:06:50.317Z,4.53
2023-02-17T14:07:57.876Z,4.32
2023-02-17T14:08:59.825Z,3.88
2023-02-17T14:10:01.727Z,3.60
2023-02-17T14:11:16.889Z,4.20
2023-02-17T14:12:23.739Z,3.80
2023-02-17T14:13:25.959Z,4.50
2023-02-17T14:14:39.441Z,3.70
2023-02-17T14:15:59.556Z,3.83
2023-02-17T14:17:05.525Z,3.90
2023-02-17T14:18:15.561Z,3.90
2023-02-17T14:19:19.216Z,4.05
2023-02-17T14:20:39.200Z,4.60
2023-02-17T14:21:56.996Z,3.88
2023-02-17T14:23:06.285Z,3.60
2023-02-17T14:24:23.365Z,4.13
2023-02-17T14:25:30.655Z,4.13
2023-02-17T14:26:47.316Z,4.20
2023-02-17T14:27:51.216Z,3.60
2023-02-17T14:29:01.347Z,3.42
2023-02-17T14:30:05.548Z,3.72
2023-02-17T14:31:12.660Z,3.30
2023-02-17T14:32:34.112Z,4.28
2023-02-17T14:33:35.936Z,3.95
2023-02-17T14:34:37.787Z,3.78
2023-02-17T14:35:52.315Z,2.92
2023-02-17T14:36:54.189Z,3.45
2023-02-17T14:38:07.812Z,3.30
2023-02-17T14:39:15.470Z,3.28
2023-02-17T14:40:20.497Z,2.97
2023-02-17T14:41:22.473Z,3.97
2023-02-17T14:42:24.309Z,3.05
2023-02-17T14:43:26.173Z,3.28
2023-02-17T14:44:28.017Z,2.97
2023-02-17T14:45:29.880Z,3.00
2023-02-17T14:46:32.982Z,2.55